Time;durP1;ratioP1;P1;durP2;ratioP2;P2;SDS_P1;SDS_P2;PMS_P1;PMS_P2;Temp;Humidity;BMP_temperature;BMP_pressure;BME280_temperature;BME280_humidity;BME280_pressure;Samples;Min_cycle;Max_cycle;Signal;HPM_P1;HPM_P2
2022/04/12 00:01:43;;;;;;;22.00;8.00;;;;;;;-0.48;88.30;100215.75;104832;1277;75074;-65
2022/04/12 00:04:32;;;;;;;22.00;8.80;;;;;;;-0.52;87.81;100219.70;104574;1275;68077;-66
2022/04/12 00:07:20;;;;;;;20.30;8.50;;;;;;;-0.55;88.20;100222.20;104622;1277;74262;-66
2022/04/12 00:10:10;;;;;;;22.10;7.90;;;;;;;-0.57;88.38;100220.70;104645;1275;60487;-63
2022/04/12 00:13:00;;;;;;;23.60;8.30;;;;;;;-0.60;88.43;100220.46;104609;1277;60761;-63
2022/04/12 00:15:48;;;;;;;26.20;9.30;;;;;;;-0.63;88.41;100217.23;104920;1274;75721;-66
2022/04/12 00:21:45;;;;;;;21.50;8.50;;;;;;;-0.69;88.36;100227.67;105043;1275;71526;-65
2022/04/12 00:24:34;;;;;;;22.70;8.30;;;;;;;-0.70;88.59;100227.02;104764;1274;60584;-66
2022/04/12 00:27:22;;;;;;;23.80;8.10;;;;;;;-0.73;88.57;100224.48;104656;1274;60587;-66
2022/04/12 00:30:13;;;;;;;21.20;8.10;;;;;;;-0.78;88.73;100224.27;104901;1274;74630;-64
2022/04/12 00:33:02;;;;;;;20.20;7.30;;;;;;;-0.82;89.03;100222.98;104848;1274;68459;-67
2022/04/12 00:35:50;;;;;;;19.90;7.10;;;;;;;-0.87;89.14;100223.12;104712;1274;73270;-64
2022/04/12 00:38:38;;;;;;;23.90;8.20;;;;;;;-0.91;89.25;100223.95;104712;1274;60485;-66
2022/04/12 00:41:35;;;;;;;22.80;8.70;;;;;;;-0.94;89.77;100227.16;106206;1274;61060;-64
2022/04/12 00:44:30;;;;;;;24.50;8.10;;;;;;;-0.97;90.17;100227.23;107337;1274;73974;-64
2022/04/12 00:47:18;;;;;;;20.10;7.60;;;;;;;-0.96;90.49;100229.13;107099;1274;70176;-63
2022/04/12 00:50:11;;;;;;;20.20;7.10;;;;;;;-0.94;90.83;100225.59;107845;1274;72396;-64
2022/04/12 00:52:59;;;;;;;19.40;7.20;;;;;;;-0.91;90.89;100228.83;106216;1274;60481;-64
2022/04/12 00:55:48;;;;;;;19.50;6.40;;;;;;;-0.89;91.44;100231.54;104858;1274;60397;-69
2022/04/12 00:58:37;;;;;;;15.70;6.30;;;;;;;-0.85;91.29;100234.58;104732;1274;74825;-63
2022/04/12 01:01:26;;;;;;;16.70;5.90;;;;;;;-0.81;91.80;100239.34;104840;1274;67965;-65
2022/04/12 01:04:14;;;;;;;17.50;5.70;;;;;;;-0.79;92.08;100237.20;104817;1274;74692;-64
2022/04/12 01:07:03;;;;;;;16.40;5.30;;;;;;;-0.77;91.77;100242.36;104743;1274;60572;-63
2022/04/12 01:09:53;;;;;;;13.30;4.70;;;;;;;-0.75;91.92;100244.23;104446;1274;60473;-66
2022/04/12 01:12:42;;;;;;;14.90;4.90;;;;;;;-0.73;92.89;100245.75;104544;1274;74682;-65
2022/04/12 01:15:30;;;;;;;13.40;4.60;;;;;;;-0.72;92.93;100240.32;104426;1277;68547;-63
2022/04/12 01:18:18;;;;;;;17.10;4.80;;;;;;;-0.72;93.04;100245.35;104111;1274;1003875;-63
2022/04/12 01:21:06;;;;;;;13.20;5.10;;;;;;;-0.70;93.41;100244.96;104674;1275;60485;-63
2022/04/12 01:24:02;;;;;;;15.40;4.70;;;;;;;-0.68;93.42;100243.67;104627;1274;60470;-64
2022/04/12 01:26:50;;;;;;;15.50;4.70;;;;;;;-0.65;93.18;100240.66;104644;1275;74604;-64
2022/04/12 01:29:38;;;;;;;16.30;5.10;;;;;;;-0.63;93.32;100245.46;105114;1274;69228;-67
2022/04/12 01:32:26;;;;;;;15.90;5.40;;;;;;;-0.62;93.36;100246.12;104739;1274;73873;-62
2022/04/12 01:35:14;;;;;;;13.60;5.20;;;;;;;-0.60;93.55;100246.95;104731;1274;60484;-64
2022/04/12 01:38:03;;;;;;;16.70;5.40;;;;;;;-0.59;93.15;100250.05;104776;1274;60506;-64
2022/04/12 01:40:50;;;;;;;18.20;4.90;;;;;;;-0.56;93.51;100255.55;104747;1274;74569;-64
2022/04/12 01:43:38;;;;;;;12.70;4.30;;;;;;;-0.54;93.34;100254.10;104845;1274;68534;-64
2022/04/12 01:46:27;;;;;;;15.90;4.70;;;;;;;-0.53;93.54;100255.64;104741;1274;74426;-66
2022/04/12 01:49:16;;;;;;;12.50;3.70;;;;;;;-0.52;93.87;100256.98;104702;1274;60482;-64
2022/04/12 01:52:05;;;;;;;11.60;3.90;;;;;;;-0.50;94.03;100259.23;104716;1274;60573;-63
2022/04/12 01:54:53;;;;;;;20.40;5.00;;;;;;;-0.50;93.72;100258.00;104713;1274;74336;-62
2022/04/12 01:57:41;;;;;;;12.80;4.20;;;;;;;-0.51;93.63;100260.82;104997;1274;69416;-63
2022/04/12 02:00:29;;;;;;;17.60;4.70;;;;;;;-0.53;93.61;100257.37;104954;1274;73755;-63
2022/04/12 02:03:17;;;;;;;17.10;4.80;;;;;;;-0.53;93.61;100259.30;103965;1274;1004152;-61
2022/04/12 02:06:05;;;;;;;19.40;4.70;;;;;;;-0.54;93.21;100258.64;104748;1274;62151;-62
2022/04/12 02:08:53;;;;;;;17.30;4.90;;;;;;;-0.55;93.47;100262.47;104874;1274;74603;-61
2022/04/12 02:11:41;;;;;;;16.10;4.70;;;;;;;-0.54;93.65;100266.30;104715;1274;68701;-63
2022/04/12 02:14:29;;;;;;;15.60;4.50;;;;;;;-0.54;94.18;100264.71;104769;1274;74151;-64
2022/04/12 02:17:18;;;;;;;13.90;4.20;;;;;;;-0.52;94.15;100267.97;104818;1275;60581;-62
2022/04/12 02:20:06;;;;;;;28.40;9.10;;;;;;;-0.49;94.11;100272.09;104722;1274;60677;-62
2022/04/12 02:22:55;;;;;;;67.50;24.40;;;;;;;-0.50;93.77;100276.46;104899;1274;75988;-61
2022/04/12 02:25:42;;;;;;;79.40;29.70;;;;;;;-0.52;93.81;100276.02;104820;1274;68275;-62
2022/04/12 02:28:30;;;;;;;149.90;47.80;;;;;;;-0.54;93.63;100279.18;104742;1273;73286;-62
2022/04/12 02:31:18;;;;;;;178.90;49.10;;;;;;;-0.57;93.70;100282.58;104879;1274;60549;-63
2022/04/12 02:34:06;;;;;;;158.30;43.40;;;;;;;-0.59;93.95;100284.38;104685;1275;60496;-62
2022/04/12 02:36:55;;;;;;;123.10;39.00;;;;;;;-0.61;93.96;100283.58;103966;1274;1002733;-64
2022/04/12 02:39:43;;;;;;;47.20;15.60;;;;;;;-0.62;94.06;100286.23;104852;1274;69567;-64
2022/04/12 02:42:31;;;;;;;33.60;12.10;;;;;;;-0.62;94.40;100288.66;104573;1275;73596;-64
2022/04/12 02:45:19;;;;;;;22.00;8.00;;;;;;;-0.62;94.56;100295.98;104612;1275;60548;-66
2022/04/12 02:48:08;;;;;;;20.70;6.20;;;;;;;-0.61;94.76;100295.60;104482;1274;60539;-65
2022/04/12 02:50:56;;;;;;;12.90;5.00;;;;;;;-0.61;94.65;100296.47;104554;1275;73642;-67
2022/04/12 02:53:44;;;;;;;13.70;4.20;;;;;;;-0.59;94.71;100295.89;104780;1275;69506;-70
2022/04/12 02:56:32;;;;;;;13.40;4.30;;;;;;;-0.59;94.82;100296.23;104873;1274;72487;-66
2022/04/12 02:59:20;;;;;;;17.60;4.60;;;;;;;-0.59;94.35;100299.55;104617;1274;60516;-65
2022/04/12 03:02:07;;;;;;;11.50;4.30;;;;;;;-0.60;94.21;100295.05;104636;1274;60573;-67
2022/04/12 03:05:02;;;;;;;13.40;5.40;;;;;;;-0.62;94.39;100300.50;104653;1274;74496;-64
2022/04/12 03:07:50;;;;;;;17.50;7.40;;;;;;;-0.64;94.45;100301.77;104653;1274;68577;-69
2022/04/12 03:10:38;;;;;;;21.20;8.60;;;;;;;-0.65;94.68;100299.89;104507;1275;75450;-67
2022/04/12 03:13:26;;;;;;;15.20;6.00;;;;;;;-0.66;94.72;100295.59;104623;1274;60589;-67
2022/04/12 03:16:14;;;;;;;15.90;5.60;;;;;;;-0.66;94.67;100296.63;104626;1274;60448;-66
2022/04/12 03:19:02;;;;;;;18.80;5.30;;;;;;;-0.66;94.91;100299.77;104684;1274;74343;-67
2022/04/12 03:21:50;;;;;;;15.30;5.30;;;;;;;-0.65;95.13;100303.57;104415;1277;67463;-69
2022/04/12 03:24:38;;;;;;;12.80;4.60;;;;;;;-0.66;94.98;100304.63;104435;1277;74389;-69
2022/04/12 03:27:28;;;;;;;14.30;5.60;;;;;;;-0.64;95.09;100305.81;104607;1278;60480;-68
2022/04/12 03:30:16;;;;;;;17.80;6.60;;;;;;;-0.64;95.44;100309.80;104738;1276;60455;-67
2022/04/12 03:33:04;;;;;;;14.60;5.50;;;;;;;-0.64;95.16;100307.89;104331;1277;73187;-68
2022/04/12 03:35:52;;;;;;;16.80;6.40;;;;;;;-0.66;95.48;100309.34;104461;1277;67335;-65
2022/04/12 03:38:48;;;;;;;15.50;5.40;;;;;;;-0.68;95.53;100308.86;104756;1277;72940;-67
2022/04/12 03:41:36;;;;;;;15.00;4.70;;;;;;;-0.70;95.46;100307.87;104529;1277;60492;-65
2022/04/12 03:44:24;;;;;;;19.60;5.60;;;;;;;-0.71;95.40;100309.11;104551;1277;62038;-64
2022/04/12 03:47:12;;;;;;;15.30;4.90;;;;;;;-0.71;95.70;100310.68;104515;1277;74689;-67
2022/04/12 03:49:59;;;;;;;13.30;5.10;;;;;;;-0.72;95.52;100310.18;104789;1277;67922;-62
2022/04/12 03:52:48;;;;;;;14.20;4.50;;;;;;;-0.71;95.86;100316.61;104515;1275;71043;-64
2022/04/12 03:55:39;;;;;;;15.00;4.80;;;;;;;-0.71;95.60;100314.86;105229;1274;60500;-65
2022/04/12 03:58:27;;;;;;;13.20;4.30;;;;;;;-0.71;95.56;100315.56;105849;1274;60473;-65
2022/04/12 04:01:15;;;;;;;17.10;4.80;;;;;;;-0.70;95.85;100316.77;105585;1274;76121;-64
2022/04/12 04:04:04;;;;;;;13.20;4.50;;;;;;;-0.68;95.68;100315.49;105920;1274;68331;-63
2022/04/12 04:06:51;;;;;;;13.10;4.60;;;;;;;-0.66;95.66;100321.03;105302;1274;71409;-66
2022/04/12 04:09:39;;;;;;;14.20;4.80;;;;;;;-0.65;95.71;100321.85;104800;1274;60486;-64
2022/04/12 04:12:28;;;;;;;12.20;3.80;;;;;;;-0.65;95.65;100322.55;104818;1274;60511;-68
2022/04/12 04:15:16;;;;;;;13.00;3.90;;;;;;;-0.65;95.67;100331.80;104664;1274;75816;-66
2022/04/12 04:18:04;;;;;;;13.90;4.70;;;;;;;-0.66;95.60;100332.17;104711;1274;68755;-64
2022/04/12 04:20:52;;;;;;;18.90;5.00;;;;;;;-0.67;95.57;100335.14;104789;1274;73564;-65
2022/04/12 04:23:40;;;;;;;14.10;4.80;;;;;;;-0.66;95.94;100340.36;103239;1274;1003889;-69
2022/04/12 04:26:28;;;;;;;15.40;5.20;;;;;;;-0.63;96.11;100338.02;105031;1274;60433;-64
2022/04/12 04:29:16;;;;;;;15.60;5.30;;;;;;;-0.60;95.98;100341.06;105190;1274;74984;-65
2022/04/12 04:32:05;;;;;;;12.80;4.80;;;;;;;-0.57;95.78;100342.36;104768;1274;67096;-67
2022/04/12 04:34:53;;;;;;;15.60;4.00;;;;;;;-0.51;96.01;100343.80;104725;1274;73573;-65
2022/04/12 04:37:49;;;;;;;14.30;4.70;;;;;;;-0.45;96.07;100345.55;104630;1275;60665;-65
2022/04/12 04:40:37;;;;;;;16.80;5.60;;;;;;;-0.38;96.08;100349.52;104722;1274;60385;-65
2022/04/12 04:43:25;;;;;;;17.50;7.00;;;;;;;-0.32;95.86;100350.25;104838;1274;72313;-67
2022/04/12 04:46:14;;;;;;;15.50;5.60;;;;;;;-0.26;95.89;100348.85;103415;1274;1003025;-65
2022/04/12 04:49:02;;;;;;;17.10;4.70;;;;;;;-0.21;95.81;100350.97;104742;1274;72279;-65
2022/04/12 04:51:50;;;;;;;12.20;4.30;;;;;;;-0.16;95.77;100357.10;104497;1274;60522;-65
2022/04/12 04:54:38;;;;;;;16.40;5.80;;;;;;;-0.10;95.92;100359.04;104593;1274;60441;-67
2022/04/12 04:57:26;;;;;;;16.50;5.00;;;;;;;-0.04;95.94;100356.92;104981;1274;74763;-65
2022/04/12 05:00:17;;;;;;;16.70;5.00;;;;;;;0.05;95.95;100359.13;104876;1274;69385;-65
2022/04/12 05:03:05;;;;;;;15.10;4.60;;;;;;;0.14;95.80;100364.60;104649;1274;72185;-66
2022/04/12 05:05:53;;;;;;;15.70;4.30;;;;;;;0.25;95.94;100365.67;104738;1274;60585;-66
2022/04/12 05:08:41;;;;;;;19.10;5.00;;;;;;;0.36;95.79;100368.48;104868;1274;60516;-65
2022/04/12 05:11:31;;;;;;;14.50;4.20;;;;;;;0.49;95.51;100371.92;104661;1274;74658;-66
2022/04/12 05:14:20;;;;;;;13.40;4.50;;;;;;;0.61;95.24;100373.65;104867;1274;65977;-66
2022/04/12 05:17:08;;;;;;;13.40;4.60;;;;;;;0.73;95.09;100373.81;104748;1274;72303;-66
2022/04/12 05:19:56;;;;;;;12.00;3.90;;;;;;;0.84;94.68;100376.75;104650;1274;60538;-66
2022/04/12 05:22:45;;;;;;;12.70;4.40;;;;;;;0.94;94.20;100381.70;105126;1274;59643;-67
2022/04/12 05:25:33;;;;;;;15.70;4.70;;;;;;;1.03;93.90;100384.53;104119;1274;1002537;-66
2022/04/12 05:28:23;;;;;;;15.30;5.10;;;;;;;1.12;93.58;100390.52;104649;1274;70055;-66
2022/04/12 05:31:12;;;;;;;17.90;5.40;;;;;;;1.22;93.09;100394.38;104610;1274;73244;-65
2022/04/12 05:34:01;;;;;;;16.50;5.40;;;;;;;1.34;92.78;100399.41;104678;1274;60396;-67
2022/04/12 05:36:49;;;;;;;14.40;5.30;;;;;;;1.47;92.26;100403.69;105023;1274;60998;-68
2022/04/12 05:39:40;;;;;;;12.70;3.70;;;;;;;1.60;91.84;100403.57;104934;1274;74944;-66
2022/04/12 05:42:28;;;;;;;14.30;4.40;;;;;;;1.75;91.02;100405.69;104904;1274;67364;-65
2022/04/12 05:45:18;;;;;;;16.10;4.40;;;;;;;1.91;90.40;100406.67;104983;1274;72102;-68
2022/04/12 05:48:07;;;;;;;12.30;4.30;;;;;;;2.07;89.80;100410.30;104507;1274;61015;-68
2022/04/12 05:51:00;;;;;;;12.70;4.10;;;;;;;2.23;88.80;100416.70;104804;1274;60454;-67
2022/04/12 05:53:48;;;;;;;15.30;4.80;;;;;;;2.39;88.21;100424.15;104752;1274;74784;-67
2022/04/12 05:56:36;;;;;;;11.50;4.00;;;;;;;2.56;87.21;100425.11;104962;1274;66422;-68
2022/04/12 05:59:24;;;;;;;13.30;3.40;;;;;;;2.69;86.49;100420.89;104701;1274;73440;-67
2022/04/12 06:02:12;;;;;;;12.20;3.50;;;;;;;2.84;85.65;100424.89;104903;1275;60509;-66
2022/04/12 06:05:01;;;;;;;13.70;4.10;;;;;;;2.98;84.19;100427.98;104688;1274;62106;-67
2022/04/12 06:07:50;;;;;;;14.70;4.10;;;;;;;3.15;83.34;100429.05;104837;1274;73195;-66
2022/04/12 06:10:38;;;;;;;11.80;3.70;;;;;;;3.32;82.43;100426.07;104901;1274;68847;-67
2022/04/12 06:13:26;;;;;;;11.70;3.70;;;;;;;3.55;81.72;100428.11;104647;1274;72091;-65
2022/04/12 06:16:14;;;;;;;9.30;3.10;;;;;;;3.80;80.45;100432.31;104706;1274;60447;-67
2022/04/12 06:19:02;;;;;;;12.50;3.80;;;;;;;4.07;78.09;100434.25;104765;1274;60611;-66
2022/04/12 06:21:50;;;;;;;10.50;3.50;;;;;;;4.81;74.94;100437.51;105116;1274;75575;-66
2022/04/12 06:24:39;;;;;;;9.80;3.50;;;;;;;6.96;70.88;100434.48;104662;1274;68719;-67
2022/04/12 06:27:35;;;;;;;10.70;3.60;;;;;;;9.51;62.56;100430.98;104799;1273;73511;-69
2022/04/12 06:30:27;;;;;;;12.20;3.30;;;;;;;11.89;55.35;100426.11;104818;1274;60443;-68
2022/04/12 06:33:15;;;;;;;12.00;3.50;;;;;;;13.94;46.98;100423.11;104556;1274;60770;-69
2022/04/12 06:36:04;;;;;;;11.40;3.20;;;;;;;15.57;41.58;100417.35;104753;1274;74749;-68
2022/04/12 06:38:53;;;;;;;13.50;3.10;;;;;;;16.90;37.16;100416.66;104736;1274;68544;-67
2022/04/12 06:41:41;;;;;;;11.70;3.00;;;;;;;18.15;35.77;100417.95;104748;1274;73826;-69
2022/04/12 06:44:32;;;;;;;10.80;2.80;;;;;;;19.38;33.05;100408.10;105019;1274;60498;-71
2022/04/12 06:47:27;;;;;;;9.40;2.70;;;;;;;20.30;29.81;100404.91;105477;1274;60924;-69
2022/04/12 06:50:19;;;;;;;8.90;2.60;;;;;;;21.17;28.45;100405.27;104837;1275;73230;-68
2022/04/12 06:53:10;;;;;;;9.60;2.70;;;;;;;21.79;26.32;100403.54;104496;1275;67490;-68
2022/04/12 06:55:58;;;;;;;9.50;2.50;;;;;;;22.35;25.76;100403.86;104767;1274;73781;-69
2022/04/12 06:58:46;;;;;;;10.30;2.70;;;;;;;22.87;24.61;100403.28;104676;1274;60895;-71
2022/04/12 07:01:34;;;;;;;8.60;2.60;;;;;;;23.26;23.80;100403.36;104848;1274;61556;-68
2022/04/12 07:04:22;;;;;;;9.60;2.50;;;;;;;23.46;22.88;100402.13;104656;1274;75098;-69
2022/04/12 07:07:11;;;;;;;11.80;2.60;;;;;;;23.47;21.47;100402.35;104719;1274;69193;-68
2022/04/12 07:09:58;;;;;;;8.80;2.30;;;;;;;23.77;21.87;100402.64;104781;1274;73394;-69
2022/04/12 07:12:53;;;;;;;8.80;2.20;;;;;;;24.00;20.33;100395.79;104911;1274;60760;-67
2022/04/12 07:15:43;;;;;;;7.50;2.30;;;;;;;24.32;20.04;100403.91;104609;1274;60503;-69
2022/04/12 07:18:31;;;;;;;9.50;2.50;;;;;;;24.57;19.75;100407.96;104766;1274;73084;-68
2022/04/12 07:21:21;;;;;;;8.50;2.60;;;;;;;24.78;19.34;100408.73;104939;1274;69657;-69
2022/04/12 07:24:09;;;;;;;9.00;2.30;;;;;;;24.74;18.65;100405.79;104812;1274;74965;-71
2022/04/12 07:26:57;;;;;;;8.80;2.30;;;;;;;24.77;18.34;100408.81;104667;1274;60590;-67
2022/04/12 07:29:45;;;;;;;7.60;2.40;;;;;;;24.77;17.72;100408.91;104802;1274;60416;-69
2022/04/12 07:32:33;;;;;;;8.90;2.30;;;;;;;24.90;18.58;100411.10;104725;1274;74712;-68
2022/04/12 07:35:22;;;;;;;9.30;2.20;;;;;;;24.92;18.61;100413.80;104620;1274;69405;-68
2022/04/12 07:38:11;;;;;;;10.40;2.40;;;;;;;24.99;18.44;100416.45;104764;1274;74751;-67
2022/04/12 07:40:59;;;;;;;7.70;2.00;;;;;;;25.25;17.99;100417.23;105270;1274;60729;-70
2022/04/12 07:43:52;;;;;;;9.80;2.30;;;;;;;25.39;17.62;100417.00;104729;1275;60403;-70
2022/04/12 07:46:41;;;;;;;10.00;2.50;;;;;;;25.21;17.40;100416.53;104992;1274;75879;-70
2022/04/12 07:49:29;;;;;;;9.70;1.90;;;;;;;25.24;17.67;100417.54;104720;1274;68450;-70
2022/04/12 07:52:18;;;;;;;7.60;2.00;;;;;;;25.29;16.51;100414.02;104686;1274;71611;-68
2022/04/12 07:55:09;;;;;;;9.80;2.70;;;;;;;25.17;16.98;100417.33;104904;1274;60394;-71
2022/04/12 07:57:57;;;;;;;8.30;1.90;;;;;;;24.57;17.01;100418.39;105106;1274;60923;-69
2022/04/12 08:00:45;;;;;;;8.60;3.90;;;;;;;23.90;17.53;100421.45;104706;1275;71788;-68
2022/04/12 08:03:34;;;;;;;10.50;2.30;;;;;;;22.93;17.98;100428.63;105015;1274;69634;-70
2022/04/12 08:06:22;;;;;;;7.50;2.20;;;;;;;22.51;18.87;100434.36;104939;1274;72735;-71
2022/04/12 08:09:10;;;;;;;7.90;2.60;;;;;;;22.62;19.05;100435.00;104863;1275;60571;-69
2022/04/12 08:11:58;;;;;;;8.70;2.40;;;;;;;23.07;19.20;100431.81;105034;1275;60642;-69
2022/04/12 08:14:45;;;;;;;9.00;2.30;;;;;;;23.66;18.16;100431.76;104903;1274;72479;-69
2022/04/12 08:17:33;;;;;;;9.30;2.10;;;;;;;23.94;17.85;100432.20;104992;1274;68660;-71
2022/04/12 08:20:22;;;;;;;7.70;2.10;;;;;;;23.97;17.94;100430.89;104895;1274;72927;-70
2022/04/12 08:23:11;;;;;;;7.50;2.00;;;;;;;24.33;17.71;100434.58;105088;1274;60418;-69
2022/04/12 08:25:59;;;;;;;9.70;2.80;;;;;;;24.39;17.20;100433.65;105170;1274;60576;-70
2022/04/12 08:28:46;;;;;;;8.30;2.50;;;;;;;24.48;17.47;100432.90;104924;1274;74272;-71
2022/04/12 08:31:34;;;;;;;8.30;2.40;;;;;;;24.26;17.23;100436.55;104983;1274;69709;-70
2022/04/12 08:34:22;;;;;;;8.40;2.10;;;;;;;24.31;17.32;100435.28;105073;1274;72965;-70
2022/04/12 08:37:11;;;;;;;7.70;2.00;;;;;;;24.23;16.71;100438.50;104803;1274;60485;-68
2022/04/12 08:39:59;;;;;;;11.40;5.60;;;;;;;24.29;16.85;100437.48;104941;1274;60569;-68
2022/04/12 08:42:47;;;;;;;7.20;1.60;;;;;;;24.71;15.75;100439.80;104862;1274;75094;-69
2022/04/12 08:45:37;;;;;;;7.20;2.00;;;;;;;25.05;15.47;100441.67;104969;1274;68611;-69
2022/04/12 08:48:25;;;;;;;8.30;1.70;;;;;;;25.11;15.69;100442.91;104609;1274;70357;-70
2022/04/12 08:51:13;;;;;;;7.50;2.20;;;;;;;25.11;15.70;100441.58;104848;1274;60483;-72
2022/04/12 08:54:01;;;;;;;7.30;1.70;;;;;;;25.27;15.02;100447.42;105055;1274;60649;-71
2022/04/12 08:56:52;;;;;;;6.60;1.60;;;;;;;25.13;15.10;100449.15;105085;1274;72528;-71
2022/04/12 08:59:41;;;;;;;6.90;1.90;;;;;;;24.75;15.31;100444.52;104899;1274;68087;-74
2022/04/12 09:02:29;;;;;;;8.10;1.70;;;;;;;24.58;15.49;100443.03;105105;1274;72594;-72
2022/04/12 09:05:18;;;;;;;8.00;1.90;;;;;;;24.67;15.47;100442.34;104465;1275;313056;-72
2022/04/12 09:08:31;;;;;;;7.90;2.20;;;;;;;25.13;15.80;100438.22;104851;1274;60728;-73
2022/04/12 09:11:20;;;;;;;11.00;5.20;;;;;;;25.90;15.11;100433.89;104841;1275;74298;-71
2022/04/12 09:14:15;;;;;;;8.70;2.30;;;;;;;26.49;14.69;100437.08;105056;1274;69284;-71
2022/04/12 09:17:05;;;;;;;7.70;1.70;;;;;;;26.56;14.29;100438.44;104858;1274;71322;-71
2022/04/12 09:19:55;;;;;;;7.70;1.60;;;;;;;25.87;14.16;100431.20;104897;1274;61122;-71
2022/04/12 09:22:43;;;;;;;7.60;1.40;;;;;;;24.87;14.48;100434.83;105154;1274;60431;-73
2022/04/12 09:25:32;;;;;;;12.00;2.60;;;;;;;24.78;15.20;100432.73;104669;1275;74094;-71
2022/04/12 09:28:20;;;;;;;7.10;1.70;;;;;;;25.22;15.10;100431.65;104757;1275;68164;-71
2022/04/12 09:31:28;;;;;;;6.60;1.60;;;;;;;25.32;14.77;100430.67;105067;1275;73107;-71
2022/04/12 09:34:16;;;;;;;8.30;1.80;;;;;;;25.17;14.90;100430.23;104595;1275;60541;-73
2022/04/12 09:37:29;;;;;;;5.70;1.20;;;;;;;25.33;14.96;100432.73;104907;1274;60468;-72
2022/04/12 09:40:18;;;;;;;7.90;1.70;;;;;;;25.27;14.54;100433.98;104861;1274;74013;-77
2022/04/12 09:43:11;;;;;;;6.70;1.80;;;;;;;25.23;15.03;100433.30;105244;1274;66932;-73
2022/04/12 09:46:06;;;;;;;9.60;2.50;;;;;;;25.15;14.69;100437.46;104631;1275;72779;-70
2022/04/12 09:48:54;;;;;;;8.20;2.00;;;;;;;25.51;15.03;100433.39;104915;1274;60596;-69
2022/04/12 09:51:42;;;;;;;7.70;1.70;;;;;;;25.49;14.62;100434.69;104758;1274;60466;-71
2022/04/12 09:54:32;;;;;;;8.30;1.50;;;;;;;25.44;14.36;100434.52;104996;1274;72551;-73
2022/04/12 09:57:22;;;;;;;6.10;1.30;;;;;;;25.84;14.26;100434.17;104576;1274;66852;-71
2022/04/12 10:00:11;;;;;;;6.90;1.20;;;;;;;26.22;13.42;100432.89;104645;1274;72019;-70
2022/04/12 10:03:07;;;;;;;5.70;1.30;;;;;;;26.51;13.41;100436.02;104629;1275;60486;-73
2022/04/12 10:05:55;;;;;;;8.20;1.90;;;;;;;26.97;13.27;100438.11;104984;1275;60527;-73
2022/04/12 10:08:43;;;;;;;7.10;1.40;;;;;;;27.30;13.24;100441.86;104948;1274;74280;-69
2022/04/12 10:11:35;;;;;;;5.50;1.20;;;;;;;27.02;12.97;100437.02;105054;1274;67294;-75
2022/04/12 10:14:24;;;;;;;8.30;1.50;;;;;;;26.94;13.33;100439.43;104837;1274;73048;-74
2022/04/12 10:17:14;;;;;;;7.60;1.60;;;;;;;27.08;13.15;100439.35;104840;1273;60477;-71
2022/04/12 10:20:04;;;;;;;6.30;1.30;;;;;;;26.94;13.24;100440.98;105203;1274;61057;-70
2022/04/12 10:22:54;;;;;;;7.70;1.20;;;;;;;26.88;13.63;100444.67;105642;1274;74157;-70
2022/04/12 10:25:42;;;;;;;10.10;3.10;;;;;;;27.00;14.00;100446.11;107982;1274;66805;-74
2022/04/12 10:28:31;;;;;;;11.30;2.80;;;;;;;26.54;15.82;100442.02;107101;1274;72820;-70
2022/04/12 10:31:24;;;;;;;10.20;2.90;;;;;;;26.22;16.28;100445.60;106703;1274;60481;-69
2022/04/12 10:34:29;;;;;;;9.80;2.60;;;;;;;25.85;16.85;100445.20;105893;1274;60662;-71
2022/04/12 10:37:18;;;;;;;12.10;3.60;;;;;;;25.79;17.32;100446.39;105139;1274;73263;-71
2022/04/12 10:40:27;;;;;;;11.20;3.20;;;;;;;25.66;17.21;100447.31;104963;1274;68052;-72
2022/04/12 10:43:33;;;;;;;12.30;3.00;;;;;;;25.68;17.57;100449.11;104964;1274;72924;-72
2022/04/12 10:46:21;;;;;;;12.50;3.10;;;;;;;25.56;17.93;100450.45;104754;1275;60484;-70
2022/04/12 10:49:12;;;;;;;12.20;3.20;;;;;;;25.39;17.93;100447.09;104793;1275;60471;-72
2022/04/12 10:52:08;;;;;;;14.40;3.60;;;;;;;25.24;18.11;100452.11;104832;1275;73819;-70
2022/04/12 10:54:57;;;;;;;11.40;3.10;;;;;;;25.01;18.02;100453.89;105002;1274;66976;-70
2022/04/12 10:57:47;;;;;;;14.50;3.20;;;;;;;24.47;18.63;100459.14;104856;1275;72992;-70
2022/04/12 11:00:36;;;;;;;10.40;3.40;;;;;;;24.21;19.25;100458.69;104863;1274;60526;-71
2022/04/12 11:03:44;;;;;;;10.00;3.40;;;;;;;24.28;19.07;100452.96;104964;1274;60476;-70
2022/04/12 11:06:34;;;;;;;10.70;3.40;;;;;;;24.26;19.29;100452.79;105117;1274;75588;-70
2022/04/12 11:09:22;;;;;;;9.80;3.40;;;;;;;24.34;19.15;100446.88;105103;1274;69940;-72
2022/04/12 11:12:14;;;;;;;10.30;3.40;;;;;;;24.09;18.72;100452.55;104841;1274;72371;-74
2022/04/12 11:15:22;;;;;;;13.00;4.60;;;;;;;23.85;19.30;100454.95;104995;1274;60483;-72
2022/04/12 11:18:15;;;;;;;10.00;3.30;;;;;;;23.83;19.42;100457.31;105167;1274;60561;-70
2022/04/12 11:21:04;;;;;;;9.10;2.90;;;;;;;23.85;19.42;100458.91;104754;1275;74697;-72
2022/04/12 11:24:01;;;;;;;10.80;3.60;;;;;;;23.68;19.64;100462.45;104948;1274;68395;-75
2022/04/12 11:27:05;;;;;;;8.70;2.60;;;;;;;23.60;20.03;100461.16;105159;1274;73066;-72
2022/04/12 11:29:57;;;;;;;9.70;2.70;;;;;;;23.36;20.20;100461.41;104796;1274;60568;-71
2022/04/12 11:32:47;;;;;;;9.80;2.80;;;;;;;23.01;20.27;100462.92;105097;1274;60460;-72
2022/04/12 11:35:37;;;;;;;9.50;2.90;;;;;;;22.61;20.61;100464.23;104938;1274;74657;-71
2022/04/12 11:38:25;;;;;;;10.10;3.30;;;;;;;22.39;21.32;100462.36;105043;1275;68159;-70
2022/04/12 11:41:13;;;;;;;11.60;3.30;;;;;;;22.23;21.36;100453.89;104983;1274;72809;-71
2022/04/12 11:44:05;;;;;;;11.80;3.70;;;;;;;21.94;22.06;100461.27;104973;1275;60589;-69
2022/04/12 11:47:02;;;;;;;9.20;3.30;;;;;;;21.63;22.99;100460.95;104972;1274;62115;-71
2022/04/12 11:49:49;;;;;;;11.40;3.60;;;;;;;21.24;23.67;100465.10;105109;1274;72884;-72
2022/04/12 11:52:37;;;;;;;11.40;3.80;;;;;;;20.81;23.98;100462.13;104959;1274;66878;-71
2022/04/12 11:55:25;;;;;;;9.00;3.10;;;;;;;20.36;24.60;100465.56;104672;1274;71691;-71
2022/04/12 11:58:15;;;;;;;14.30;3.50;;;;;;;20.00;25.29;100462.34;104915;1274;60485;-69
2022/04/12 12:01:04;;;;;;;12.80;5.70;;;;;;;19.57;26.06;100464.06;104908;1274;61044;-70
2022/04/12 12:03:51;;;;;;;13.20;4.10;;;;;;;19.10;26.81;100465.12;105163;1274;74073;-70
2022/04/12 12:06:57;;;;;;;12.80;3.80;;;;;;;18.76;27.76;100463.45;104767;1275;69653;-69
2022/04/12 12:10:15;;;;;;;12.80;3.90;;;;;;;17.90;28.73;100465.89;105089;1274;73461;-70
2022/04/12 12:13:08;;;;;;;11.30;3.80;;;;;;;17.12;30.19;100476.59;104883;1275;60600;-70
2022/04/12 12:15:56;;;;;;;13.20;4.50;;;;;;;16.38;31.27;100477.05;105123;1274;61220;-69
2022/04/12 12:18:46;;;;;;;13.10;4.00;;;;;;;15.79;33.36;100481.68;104896;1274;75662;-69
2022/04/12 12:21:34;;;;;;;16.70;5.00;;;;;;;15.27;34.09;100487.27;104977;1275;68052;-69
2022/04/12 12:24:22;;;;;;;12.70;3.80;;;;;;;14.79;35.07;100492.30;105067;1275;72968;-68
2022/04/12 12:27:10;;;;;;;12.50;4.30;;;;;;;14.36;36.14;100494.98;104917;1274;60576;-69
2022/04/12 12:30:15;;;;;;;14.20;5.10;;;;;;;14.03;37.66;100490.14;105074;1274;60672;-69
2022/04/12 12:33:03;;;;;;;10.70;3.90;;;;;;;13.59;38.51;100493.35;104840;1274;74219;-68
2022/04/12 12:35:51;;;;;;;15.00;4.00;;;;;;;13.24;39.48;100491.34;104931;1275;67841;-67
2022/04/12 12:38:43;;;;;;;12.30;4.00;;;;;;;13.01;40.33;100495.16;104914;1274;73036;-66
2022/04/12 12:41:33;;;;;;;14.20;3.90;;;;;;;12.84;40.61;100492.44;104885;1274;60449;-67
2022/04/12 12:44:21;;;;;;;13.30;3.90;;;;;;;12.67;40.45;100488.61;104905;1274;61854;-68
2022/04/12 12:47:10;;;;;;;11.60;3.50;;;;;;;12.44;40.12;100494.38;104882;1275;74087;-68
2022/04/12 12:50:03;;;;;;;12.90;3.60;;;;;;;12.25;40.77;100495.45;104952;1274;66863;-68
2022/04/12 12:53:01;;;;;;;24.50;4.40;;;;;;;12.07;41.00;100498.30;105229;1274;73387;-66
2022/04/12 12:55:53;;;;;;;16.80;3.30;;;;;;;11.92;41.29;100501.85;104922;1275;60582;-68
2022/04/12 12:58:45;;;;;;;12.20;3.50;;;;;;;11.76;41.82;100498.83;105096;1275;61623;-66